createdAt,value
2022-10-25T00:16:40.823Z,14.85
2022-10-25T00:19:08.627Z,34.33
2022-10-25T00:21:36.959Z,15.70
2022-10-25T00:24:05.957Z,15.70
2022-10-25T00:26:33.867Z,19.98
2022-10-25T00:29:02.957Z,19.75
2022-10-25T00:31:35.733Z,16.92
2022-10-25T00:34:03.490Z,13.55
2022-10-25T00:36:31.595Z,15.98
2022-10-25T00:39:00.303Z,15.45
2022-10-25T00:41:30.195Z,16.52
2022-10-25T00:44:18.019Z,21.15
2022-10-25T00:46:46.502Z,14.30
2022-10-25T00:49:16.927Z,16.08
2022-10-25T00:52:05.893Z,17.48
2022-10-25T00:54:36.089Z,19.08
2022-10-25T00:57:42.994Z,19.25
2022-10-25T01:00:11.078Z,14.07
2022-10-25T01:02:39.228Z,17.67
2022-10-25T01:05:07.212Z,10.75
2022-10-25T01:07:35.412Z,26.33
2022-10-25T01:10:05.158Z,17.75
2022-10-25T01:12:32.880Z,19.13
2022-10-25T01:15:03.904Z,13.90
2022-10-25T01:17:37.845Z,15.73
2022-10-25T01:20:24.886Z,19.23
2022-10-25T01:22:52.453Z,18.23
2022-10-25T01:25:32.394Z,15.57
2022-10-25T01:28:04.578Z,18.27
2022-10-25T01:30:51.464Z,15.02
2022-10-25T01:33:38.217Z,23.33
2022-10-25T01:36:11.756Z,25.88
2022-10-25T01:38:49.324Z,21.17
2022-10-25T01:41:25.938Z,20.52
2022-10-25T01:43:53.749Z,18.65
2022-10-25T01:46:34.080Z,19.15
2022-10-25T01:49:06.173Z,20.15
2022-10-25T01:51:42.984Z,28.98
2022-10-25T01:54:27.889Z,27.23
2022-10-25T01:56:57.526Z,25.92
2022-10-25T01:59:44.368Z,22.07
2022-10-25T02:02:32.507Z,23.63
2022-10-25T02:05:19.745Z,25.95
2022-10-25T02:08:09.853Z,24.40
2022-10-25T02:10:49.121Z,35.25
2022-10-25T02:13:32.779Z,19.73
2022-10-25T02:16:07.653Z,19.48
2022-10-25T02:18:37.992Z,20.75
2022-10-25T02:21:07.077Z,19.90
2022-10-25T02:23:36.607Z,20.75
2022-10-25T02:26:08.323Z,20.48
2022-10-25T02:28:38.486Z,26.05
2022-10-25T02:31:09.845Z,31.88
2022-10-25T02:33:38.587Z,24.90
2022-10-25T02:36:13.582Z,26.25
2022-10-25T02:38:42.354Z,24.48
2022-10-25T02:41:10.615Z,23.60
2022-10-25T02:43:38.521Z,21.63
2022-10-25T02:46:08.707Z,28.13
2022-10-25T02:48:37.318Z,20.88
2022-10-25T02:51:06.169Z,18.83
2022-10-25T02:53:34.328Z,28.10
2022-10-25T02:56:09.694Z,17.88
2022-10-25T02:58:41.523Z,21.80
2022-10-25T03:01:09.743Z,22.17
2022-10-25T03:03:37.873Z,23.52
2022-10-25T03:06:05.856Z,22.42
2022-10-25T03:08:34.091Z,25.10
2022-10-25T03:11:04.201Z,20.35
2022-10-25T03:13:33.164Z,23.00
2022-10-25T03:16:01.368Z,21.67
2022-10-25T03:18:34.603Z,21.90
2022-10-25T03:21:07.955Z,18.27
2022-10-25T03:23:36.276Z,19.10
2022-10-25T03:26:03.931Z,18.30
2022-10-25T03:28:35.954Z,18.15
2022-10-25T03:31:03.651Z,20.67
2022-10-25T03:33:32.113Z,17.67
2022-10-25T03:36:00.407Z,19.40
2022-10-25T03:38:28.066Z,25.10
2022-10-25T03:40:55.727Z,21.83
2022-10-25T03:45:51.093Z,19.05
2022-10-25T03:48:21.492Z,15.70
2022-10-25T03:51:05.064Z,15.77
2022-10-25T03:53:33.637Z,21.27
2022-10-25T03:56:01.584Z,15.02
2022-10-25T03:58:29.069Z,17.23
2022-10-25T04:01:02.963Z,21.92
2022-10-25T04:03:34.199Z,20.08
2022-10-25T04:06:03.858Z,18.33
2022-10-25T04:08:32.232Z,17.67
2022-10-25T04:11:01.999Z,21.63
2022-10-25T04:13:31.631Z,16.23
2022-10-25T04:19:06.752Z,13.60
2022-10-25T04:21:34.445Z,22.77
2022-10-25T04:24:04.814Z,19.58
2022-10-25T04:26:35.610Z,14.85
2022-10-25T04:29:04.461Z,13.57
2022-10-25T04:31:33.871Z,20.98
2022-10-25T04:34:02.654Z,18.75
2022-10-25T04:36:31.870Z,19.13
2022-10-25T04:39:02.019Z,18.33
2022-10-25T04:41:30.288Z,16.55
2022-10-25T04:43:58.520Z,14.10
2022-10-25T04:46:27.065Z,12.57
2022-10-25T04:48:54.857Z,18.20
2022-10-25T04:51:22.600Z,15.73
2022-10-25T04:53:50.389Z,15.95
2022-10-25T04:56:18.373Z,15.93
2022-10-25T04:58:46.099Z,12.80
2022-10-25T05:01:16.103Z,13.30
2022-10-25T05:03:44.255Z,19.55
2022-10-25T05:06:16.872Z,13.48
2022-10-25T05:08:45.786Z,11.23
2022-10-25T05:11:15.354Z,13.15
2022-10-25T05:13:45.056Z,18.23
2022-10-25T05:16:17.389Z,12.43
2022-10-25T05:18:48.344Z,12.35
2022-10-25T05:21:16.461Z,15.75
2022-10-25T05:23:44.092Z,15.82
2022-10-25T05:26:16.447Z,15.20
2022-10-25T05:28:45.517Z,15.27
2022-10-25T05:31:16.476Z,16.08
2022-10-25T05:33:45.406Z,23.98
2022-10-25T05:36:13.585Z,18.80
2022-10-25T05:38:41.280Z,15.55
2022-10-25T05:41:09.616Z,22.98
2022-10-25T05:43:37.719Z,11.52
2022-10-25T05:46:07.952Z,12.70
2022-10-25T05:48:38.281Z,14.57
2022-10-25T05:51:28.940Z,15.45
2022-10-25T05:54:03.940Z,16.50
2022-10-25T05:56:36.101Z,15.73
2022-10-25T05:59:09.687Z,15.45
2022-10-25T06:01:55.655Z,11.35
2022-10-25T06:04:23.737Z,19.23
2022-10-25T06:06:54.044Z,15.38
2022-10-25T06:09:22.203Z,13.80
2022-10-25T06:11:53.370Z,16.40
2022-10-25T06:14:24.961Z,16.38
2022-10-25T06:16:55.537Z,20.98
2022-10-25T06:19:23.412Z,15.55
2022-10-25T06:21:52.084Z,12.85
2022-10-25T06:24:21.035Z,15.40
2022-10-25T06:26:50.994Z,16.95
2022-10-25T06:29:18.766Z,13.45
2022-10-25T06:31:46.624Z,20.25
2022-10-25T06:34:15.815Z,14.57
2022-10-25T06:36:43.553Z,18.00
2022-10-25T06:39:11.798Z,26.20
2022-10-25T06:41:41.062Z,15.13
2022-10-25T06:44:10.695Z,8.23
2022-10-25T06:49:28.643Z,20.75
2022-10-25T06:51:56.503Z,18.77
2022-10-25T06:54:25.661Z,17.45
2022-10-25T06:56:53.706Z,22.25
2022-10-25T06:59:21.272Z,14.10
2022-10-25T07:01:50.202Z,26.67
2022-10-25T07:04:18.048Z,12.13
2022-10-25T07:06:50.104Z,19.85
2022-10-25T07:09:20.762Z,17.15
2022-10-25T07:11:48.722Z,16.48
2022-10-25T07:14:16.516Z,19.58
2022-10-25T07:16:44.182Z,16.92
2022-10-25T07:19:12.255Z,23.60
2022-10-25T07:21:40.331Z,19.85
2022-10-25T07:24:11.300Z,16.38
2022-10-25T07:26:40.517Z,27.35
2022-10-25T07:29:08.685Z,22.17
2022-10-25T07:31:39.356Z,16.98
2022-10-25T07:34:07.285Z,19.00
2022-10-25T07:36:36.593Z,16.70
2022-10-25T07:39:14.264Z,23.97
2022-10-25T07:41:41.934Z,18.13
2022-10-25T07:44:15.982Z,18.45
2022-10-25T07:46:45.024Z,25.15
2022-10-25T07:49:13.183Z,19.73
2022-10-25T07:51:42.182Z,25.42
2022-10-25T07:54:10.227Z,31.25
2022-10-25T07:56:38.527Z,19.02
2022-10-25T07:59:06.401Z,25.75
2022-10-25T08:01:37.093Z,22.67
2022-10-25T08:04:05.807Z,18.77
2022-10-25T08:06:34.174Z,16.77
2022-10-25T08:09:14.476Z,18.27
2022-10-25T08:11:48.193Z,28.48
2022-10-25T08:14:16.283Z,26.02
2022-10-25T08:16:44.052Z,24.58
2022-10-25T08:19:11.978Z,23.70
2022-10-25T08:21:40.256Z,21.17
2022-10-25T08:24:08.356Z,23.83
2022-10-25T08:26:37.146Z,32.53
2022-10-25T08:29:05.817Z,20.20
2022-10-25T08:31:33.746Z,24.80
2022-10-25T08:34:04.853Z,28.75
2022-10-25T08:36:34.225Z,31.77
2022-10-25T08:39:03.292Z,24.70
2022-10-25T08:41:50.511Z,29.83
2022-10-25T08:44:42.235Z,36.75
2022-10-25T08:47:30.479Z,26.55
2022-10-25T08:50:13.092Z,25.70
2022-10-25T08:52:54.574Z,25.95
2022-10-25T08:55:58.694Z,24.73
2022-10-25T08:58:33.531Z,22.92
2022-10-25T09:01:05.944Z,23.60
2022-10-25T09:03:34.302Z,21.75
2022-10-25T09:06:02.976Z,24.08
2022-10-25T09:08:36.702Z,23.42
2022-10-25T09:11:14.192Z,24.13
2022-10-25T09:13:42.433Z,25.88
2022-10-25T09:16:17.720Z,28.05
2022-10-25T09:18:49.691Z,26.20
2022-10-25T09:21:23.565Z,20.52
2022-10-25T09:24:01.934Z,24.48
2022-10-25T09:26:40.700Z,21.95
2022-10-25T09:29:19.177Z,18.90
2022-10-25T09:31:49.740Z,22.67
2022-10-25T09:36:58.751Z,18.40
2022-10-25T09:39:46.302Z,21.20
2022-10-25T09:42:33.875Z,19.15
2022-10-25T09:45:08.915Z,19.77
2022-10-25T09:48:01.570Z,17.80
2022-10-25T09:50:33.421Z,23.42
2022-10-25T09:53:20.332Z,15.77
2022-10-25T09:55:59.032Z,20.98
2022-10-25T09:58:32.256Z,19.33
2022-10-25T10:01:14.269Z,20.63
2022-10-25T10:03:48.285Z,19.77
2022-10-25T10:06:35.036Z,21.33
2022-10-25T10:09:05.622Z,20.02
2022-10-25T10:11:33.976Z,18.75
2022-10-25T10:14:07.591Z,27.42
2022-10-25T10:16:43.493Z,16.30
2022-10-25T10:19:15.551Z,21.00
2022-10-25T10:21:44.929Z,17.45
2022-10-25T10:24:17.340Z,19.58
2022-10-25T10:26:49.233Z,14.32
2022-10-25T10:29:28.664Z,23.30
2022-10-25T10:31:58.178Z,18.58
2022-10-25T10:34:26.663Z,15.35
2022-10-25T10:37:13.414Z,13.65
2022-10-25T10:39:53.474Z,15.00
2022-10-25T10:42:27.485Z,16.90
2022-10-25T10:45:20.089Z,19.35
2022-10-25T10:47:50.969Z,16.10
2022-10-25T10:50:28.368Z,19.20
2022-10-25T10:53:00.945Z,22.02
2022-10-25T10:55:36.212Z,13.55
2022-10-25T10:58:15.848Z,18.40
2022-10-25T11:00:55.059Z,18.80
2022-10-25T11:04:00.404Z,11.48
2022-10-25T11:06:35.824Z,17.35
2022-10-25T11:09:40.459Z,11.50
2022-10-25T11:12:12.312Z,21.70
2022-10-25T11:14:40.240Z,17.35
2022-10-25T11:17:23.542Z,11.68
2022-10-25T11:20:00.821Z,12.38
2022-10-25T11:22:40.919Z,12.30
2022-10-25T11:25:23.019Z,18.80
2022-10-25T11:28:14.089Z,11.32
2022-10-25T11:31:00.581Z,11.65
2022-10-25T11:33:34.159Z,16.60
2022-10-25T11:36:27.115Z,18.20
2022-10-25T11:39:03.769Z,16.67
2022-10-25T11:41:35.948Z,14.30
2022-10-25T11:44:17.252Z,16.60
2022-10-25T11:46:58.625Z,19.42
2022-10-25T11:49:35.949Z,11.82
2022-10-25T11:52:16.880Z,11.63
2022-10-25T11:54:54.707Z,10.02
2022-10-25T11:57:46.396Z,12.23
2022-10-25T12:00:19.814Z,10.75
2022-10-25T12:03:10.223Z,11.18
2022-10-25T12:05:39.621Z,15.38
2022-10-25T12:08:07.836Z,13.95
2022-10-25T12:10:38.371Z,16.70
2022-10-25T12:13:22.040Z,11.00
2022-10-25T12:15:51.606Z,14.35
2022-10-25T12:18:32.618Z,19.40
2022-10-25T12:21:02.636Z,15.50
2022-10-25T12:23:44.463Z,16.70
2022-10-25T12:26:24.265Z,9.68
2022-10-25T12:28:52.644Z,11.80
2022-10-25T12:31:28.068Z,17.58
2022-10-25T12:34:07.673Z,11.82
2022-10-25T12:36:38.613Z,15.43
2022-10-25T12:39:14.215Z,12.60
2022-10-25T12:41:45.195Z,12.00
2022-10-25T12:44:21.736Z,11.23
2022-10-25T12:46:56.561Z,12.20
2022-10-25T12:49:32.737Z,10.90
2022-10-25T12:52:20.158Z,13.75
2022-10-25T12:55:00.845Z,10.80
2022-10-25T12:58:04.813Z,15.32
2022-10-25T13:00:39.143Z,12.88
2022-10-25T13:03:08.459Z,10.25
2022-10-25T13:05:57.729Z,12.57
2022-10-25T13:08:27.241Z,15.57
2022-10-25T13:11:11.037Z,7.57
2022-10-25T13:13:44.070Z,10.40
2022-10-25T13:16:23.160Z,7.03
2022-10-25T13:19:11.193Z,8.80
2022-10-25T13:22:11.950Z,11.93
2022-10-25T13:24:42.387Z,9.23
2022-10-25T13:27:14.253Z,8.82
2022-10-25T13:30:03.345Z,11.18
2022-10-25T13:32:32.445Z,9.82
2022-10-25T13:35:03.964Z,12.03
2022-10-25T13:37:34.755Z,8.98
2022-10-25T13:40:21.954Z,12.18
2022-10-25T13:42:50.999Z,9.27
2022-10-25T13:45:33.644Z,14.38
2022-10-25T13:48:09.936Z,12.18
2022-10-25T13:50:46.113Z,9.13
2022-10-25T13:53:26.388Z,10.07
2022-10-25T13:56:07.604Z,11.18
2022-10-25T13:58:43.987Z,14.43
2022-10-25T14:01:23.228Z,9.88
2022-10-25T14:03:53.085Z,9.98
2022-10-25T14:06:48.026Z,11.45
2022-10-25T14:09:24.903Z,15.43
2022-10-25T14:12:15.603Z,15.90
2022-10-25T14:15:00.747Z,10.57
2022-10-25T14:20:31.896Z,11.82
2022-10-25T14:23:04.200Z,16.65
2022-10-25T14:25:38.743Z,10.25
2022-10-25T14:28:08.134Z,11.95
2022-10-25T14:30:39.915Z,11.63
2022-10-25T14:33:22.197Z,6.78
2022-10-25T14:35:50.877Z,8.25
2022-10-25T14:38:26.712Z,10.95
2022-10-25T14:40:57.360Z,8.13
2022-10-25T14:46:15.832Z,16.20
2022-10-25T14:48:47.519Z,15.13
2022-10-25T14:51:27.305Z,17.88
2022-10-25T14:54:04.390Z,11.57
2022-10-25T14:56:41.018Z,9.60
2022-10-25T14:59:19.527Z,9.98
2022-10-25T15:02:11.237Z,18.67
2022-10-25T15:04:43.817Z,10.85
2022-10-25T15:07:47.205Z,8.48
2022-10-25T15:10:37.433Z,13.85
2022-10-25T15:13:12.048Z,12.45
2022-10-25T15:15:45.929Z,10.73
2022-10-25T15:18:36.870Z,14.35
2022-10-25T15:21:17.911Z,12.95
2022-10-25T15:24:06.637Z,6.90
2022-10-25T15:26:36.914Z,12.65
2022-10-25T15:29:06.758Z,9.43
2022-10-25T15:31:34.475Z,14.98
2022-10-25T15:34:04.915Z,11.80
2022-10-25T15:36:34.659Z,9.00
2022-10-25T15:39:23.717Z,13.00
2022-10-25T15:41:54.205Z,11.45
2022-10-25T15:44:24.180Z,9.48
2022-10-25T15:46:53.091Z,10.55
2022-10-25T15:49:22.352Z,9.25
2022-10-25T15:51:51.071Z,12.70
2022-10-25T15:54:20.080Z,7.60
2022-10-25T15:56:48.508Z,10.60
2022-10-25T15:59:17.841Z,11.63
2022-10-25T16:01:47.297Z,8.38
2022-10-25T16:04:17.474Z,7.72
2022-10-25T16:06:46.133Z,8.60
2022-10-25T16:09:13.775Z,12.40
2022-10-25T16:11:46.420Z,8.90
2022-10-25T16:14:30.420Z,12.88
2022-10-25T16:17:01.562Z,12.40
2022-10-25T16:22:37.813Z,9.85
2022-10-25T16:25:05.749Z,9.25
2022-10-25T16:27:33.618Z,11.40
2022-10-25T16:30:02.051Z,12.75
2022-10-25T16:32:35.546Z,7.97
2022-10-25T16:35:04.559Z,7.97
2022-10-25T16:37:33.578Z,7.53
2022-10-25T16:40:04.344Z,10.57
2022-10-25T16:42:37.128Z,9.77
2022-10-25T16:45:12.379Z,10.38
2022-10-25T16:47:41.078Z,7.07
2022-10-25T16:50:09.030Z,8.95
2022-10-25T16:52:36.851Z,11.30
2022-10-25T16:55:04.830Z,9.23
2022-10-25T16:57:33.450Z,6.45
2022-10-25T17:00:02.340Z,9.93
2022-10-25T17:02:31.068Z,6.88
2022-10-25T17:05:02.897Z,10.55
2022-10-25T17:07:31.686Z,5.20
2022-10-25T17:10:08.731Z,8.20
2022-10-25T17:12:43.251Z,9.50
2022-10-25T17:15:12.517Z,7.00
2022-10-25T17:17:41.629Z,6.05
2022-10-25T17:20:10.391Z,11.45
2022-10-25T17:22:39.147Z,13.00
2022-10-25T17:25:08.239Z,8.45
2022-10-25T17:27:40.202Z,10.32
2022-10-25T17:30:09.669Z,10.07
2022-10-25T17:32:38.019Z,5.40
2022-10-25T17:35:06.439Z,5.72
2022-10-25T17:37:37.836Z,13.38
2022-10-25T17:40:09.326Z,7.95
2022-10-25T17:42:37.286Z,7.95
2022-10-25T17:45:07.924Z,9.15
2022-10-25T17:47:38.076Z,6.40
2022-10-25T17:50:08.120Z,13.50
2022-10-25T17:52:53.770Z,5.25
2022-10-25T17:55:21.670Z,9.00
2022-10-25T17:57:50.520Z,10.98
2022-10-25T18:00:18.917Z,13.43
2022-10-25T18:02:50.743Z,7.55
2022-10-25T18:05:21.762Z,17.88
2022-10-25T18:07:51.038Z,9.95
2022-10-25T18:10:19.575Z,10.33
2022-10-25T18:12:48.920Z,9.63
2022-10-25T18:15:17.128Z,7.22
2022-10-25T18:17:47.623Z,12.00
2022-10-25T18:20:16.422Z,8.88
2022-10-25T18:22:44.224Z,19.42
2022-10-25T18:25:12.645Z,11.27
2022-10-25T18:27:40.881Z,7.20
2022-10-25T18:30:09.656Z,13.82
2022-10-25T18:32:37.549Z,17.90
2022-10-25T18:35:05.957Z,27.95
2022-10-25T18:37:34.186Z,27.05
2022-10-25T18:40:02.993Z,13.82
2022-10-25T18:42:31.989Z,16.30
2022-10-25T18:45:03.240Z,13.00
2022-10-25T18:47:34.534Z,8.82
2022-10-25T18:50:03.017Z,15.57
2022-10-25T18:52:32.704Z,7.88
2022-10-25T18:55:02.001Z,15.75
2022-10-25T18:57:32.374Z,9.27
2022-10-25T19:00:00.681Z,12.82
2022-10-25T19:02:37.482Z,10.75
2022-10-25T19:07:42.949Z,14.68
2022-10-25T19:10:11.203Z,12.38
2022-10-25T19:12:41.036Z,16.65
2022-10-25T19:15:09.903Z,9.52
2022-10-25T19:17:40.801Z,10.07
2022-10-25T19:20:09.582Z,15.38
2022-10-25T19:22:38.146Z,14.93
2022-10-25T19:25:06.221Z,9.60
2022-10-25T19:27:34.086Z,7.32
2022-10-25T19:30:08.406Z,12.90
2022-10-25T19:32:36.678Z,13.02
2022-10-25T19:35:08.866Z,7.13
2022-10-25T19:37:41.953Z,13.43
2022-10-25T19:40:10.273Z,9.70
2022-10-25T19:42:38.603Z,13.65
2022-10-25T19:45:10.308Z,18.65
2022-10-25T19:47:39.375Z,19.05
2022-10-25T19:50:08.125Z,15.90
2022-10-25T19:52:36.231Z,7.47
2022-10-25T19:57:20.700Z,8.10
2022-10-25T19:59:49.354Z,12.60
2022-10-25T20:02:17.242Z,10.63
2022-10-25T20:04:45.511Z,11.73
2022-10-25T20:07:13.435Z,9.15
2022-10-25T20:09:41.425Z,14.80
2022-10-25T20:12:09.433Z,11.02
2022-10-25T20:14:38.122Z,12.70
2022-10-25T20:17:06.234Z,13.93
2022-10-25T20:19:36.811Z,11.77
2022-10-25T20:24:36.171Z,12.02
2022-10-25T20:27:06.829Z,18.05
2022-10-25T20:32:03.892Z,14.55
2022-10-25T20:34:41.066Z,13.57
2022-10-25T20:37:10.787Z,11.95
2022-10-25T20:39:39.336Z,9.55
2022-10-25T20:42:08.747Z,11.27
2022-10-25T20:44:36.930Z,14.48
2022-10-25T20:47:04.914Z,15.10
2022-10-25T20:49:33.094Z,15.27
2022-10-25T20:52:03.014Z,12.75
2022-10-25T20:54:36.008Z,9.23
2022-10-25T20:57:12.941Z,7.50
2022-10-25T20:59:45.374Z,10.63
2022-10-25T21:02:13.614Z,10.15
2022-10-25T21:04:53.084Z,14.07
2022-10-25T21:07:22.129Z,12.85
2022-10-25T21:09:50.934Z,15.18
2022-10-25T21:12:19.164Z,9.55
2022-10-25T21:14:47.057Z,10.05
2022-10-25T21:17:14.746Z,15.07
2022-10-25T21:19:42.409Z,7.97
2022-10-25T21:22:10.691Z,11.95
2022-10-25T21:24:40.403Z,10.25
2022-10-25T21:27:10.072Z,14.68
2022-10-25T21:29:38.141Z,10.05
2022-10-25T21:32:06.204Z,9.85
2022-10-25T21:34:34.148Z,15.27
2022-10-25T21:37:02.217Z,10.50
2022-10-25T21:39:30.103Z,9.52
2022-10-25T21:41:57.859Z,12.30
2022-10-25T21:44:28.973Z,8.68
2022-10-25T21:50:04.307Z,13.98
2022-10-25T21:52:40.625Z,15.00
2022-10-25T22:01:24.474Z,12.80
2022-10-25T22:03:54.113Z,11.35
2022-10-25T22:06:23.766Z,12.85
2022-10-25T22:08:52.274Z,9.15
2022-10-25T22:11:28.624Z,11.35
2022-10-25T22:13:58.888Z,12.95
2022-10-25T22:16:27.200Z,16.67
2022-10-25T22:18:57.816Z,7.95
2022-10-25T22:23:54.023Z,16.35
2022-10-25T22:26:22.930Z,14.95
2022-10-25T22:28:57.909Z,17.90
2022-10-25T22:31:27.665Z,17.70
2022-10-25T22:33:56.776Z,12.43
2022-10-25T22:36:26.971Z,12.80
2022-10-25T22:38:55.171Z,10.65
2022-10-25T22:41:24.540Z,15.32
2022-10-25T22:43:53.116Z,15.05
2022-10-25T22:46:25.091Z,19.45
2022-10-25T22:48:57.009Z,12.27
2022-10-25T22:51:26.167Z,11.98
2022-10-25T22:53:54.303Z,13.38
2022-10-25T22:56:23.441Z,12.45
2022-10-25T22:58:52.370Z,15.57
2022-10-25T23:01:22.203Z,16.25
2022-10-25T23:03:57.811Z,15.43
2022-10-25T23:06:27.887Z,10.98
2022-10-25T23:08:56.704Z,12.23
2022-10-25T23:11:26.320Z,13.48
2022-10-25T23:13:54.336Z,14.75
2022-10-25T23:16:23.502Z,20.65
2022-10-25T23:18:51.584Z,12.82
2022-10-25T23:21:23.786Z,14.93
2022-10-25T23:23:52.979Z,11.93
2022-10-25T23:26:25.282Z,11.73
2022-10-25T23:28:54.335Z,14.20
2022-10-25T23:31:22.109Z,13.75
2022-10-25T23:33:54.128Z,16.98
2022-10-25T23:36:22.821Z,15.57
2022-10-25T23:38:51.203Z,15.35
2022-10-25T23:41:20.155Z,13.30
2022-10-25T23:43:47.989Z,14.63
2022-10-25T23:46:16.398Z,13.00
2022-10-25T23:48:43.972Z,10.73
2022-10-25T23:51:13.381Z,18.88
2022-10-25T23:53:41.924Z,17.13
2022-10-25T23:56:10.813Z,12.15
2022-10-25T23:58:39.731Z,13.90
